createdAt,value
2017-11-12T00:02:05.070Z,32.20
2017-11-12T00:04:31.971Z,31.77
2017-11-12T00:06:58.811Z,30.95
2017-11-12T00:09:26.434Z,33.60
2017-11-12T00:11:53.284Z,33.97
2017-11-12T00:14:20.164Z,33.75
2017-11-12T00:16:47.030Z,30.35
2017-11-12T00:19:13.868Z,31.23
2017-11-12T00:21:41.163Z,29.00
2017-11-12T00:24:08.826Z,28.48
2017-11-12T00:26:35.776Z,29.00
2017-11-12T00:29:02.630Z,29.48
2017-11-12T00:31:29.561Z,27.35
2017-11-12T00:33:56.454Z,27.08
2017-11-12T00:36:24.082Z,27.73
2017-11-12T00:38:51.036Z,27.20
2017-11-12T00:41:18.683Z,25.98
2017-11-12T00:43:45.548Z,24.92
2017-11-12T00:46:12.437Z,26.50
2017-11-12T00:48:39.298Z,24.67
2017-11-12T00:51:06.423Z,26.73
2017-11-12T00:53:33.999Z,23.75
2017-11-12T00:56:00.859Z,25.50
2017-11-12T00:58:27.702Z,24.63
2017-11-12T01:00:54.603Z,28.15
2017-11-12T01:03:21.494Z,27.23
2017-11-12T01:05:48.333Z,23.45
2017-11-12T01:08:15.227Z,24.08
2017-11-12T01:10:42.137Z,26.92
2017-11-12T01:13:09.011Z,28.15
2017-11-12T01:15:35.918Z,26.62
2017-11-12T01:18:02.763Z,25.98
2017-11-12T01:20:29.618Z,23.50
2017-11-12T01:22:56.448Z,30.35
2017-11-12T01:25:23.345Z,32.75
2017-11-12T01:27:50.229Z,36.45
2017-11-12T01:30:17.159Z,37.53
2017-11-12T01:32:44.132Z,40.72
2017-11-12T01:35:11.787Z,42.75
2017-11-12T01:37:38.711Z,40.33
2017-11-12T01:40:05.606Z,42.22
2017-11-12T01:42:32.543Z,43.05
2017-11-12T01:44:59.448Z,43.30
2017-11-12T01:47:26.308Z,44.20
2017-11-12T01:49:53.185Z,43.45
2017-11-12T01:52:20.061Z,43.70
2017-11-12T01:54:46.969Z,42.10
2017-11-12T01:57:14.443Z,40.78
2017-11-12T01:59:41.628Z,41.33
2017-11-12T02:02:08.590Z,45.30
2017-11-12T02:04:35.474Z,48.45
2017-11-12T02:07:02.343Z,50.20
2017-11-12T02:09:29.212Z,45.08
2017-11-12T02:11:56.120Z,44.60
2017-11-12T02:14:22.967Z,46.08
2017-11-12T02:16:49.854Z,45.17
2017-11-12T02:19:16.797Z,48.83
2017-11-12T02:21:43.856Z,46.28
2017-11-12T02:24:11.892Z,44.97
2017-11-12T02:26:38.814Z,46.35
2017-11-12T02:29:05.682Z,45.08
2017-11-12T02:31:32.635Z,47.00
2017-11-12T02:33:59.635Z,45.65
2017-11-12T02:36:26.605Z,46.08
2017-11-12T02:38:53.537Z,45.70
2017-11-12T02:41:20.448Z,46.58
2017-11-12T02:43:47.391Z,44.85
2017-11-12T02:46:15.071Z,48.10
2017-11-12T02:48:42.002Z,44.50
2017-11-12T02:51:08.969Z,47.83
2017-11-12T02:53:35.921Z,43.50
2017-11-12T02:56:02.856Z,43.38
2017-11-12T02:58:30.446Z,43.33
2017-11-12T03:00:57.659Z,46.88
2017-11-12T03:03:24.585Z,43.47
2017-11-12T03:05:51.499Z,39.38
2017-11-12T03:08:18.409Z,43.92
2017-11-12T03:10:45.282Z,40.92
2017-11-12T03:13:12.180Z,42.65
2017-11-12T03:15:39.839Z,41.83
2017-11-12T03:18:06.707Z,41.72
2017-11-12T03:20:33.615Z,42.42
2017-11-12T03:23:00.487Z,41.25
2017-11-12T03:25:27.422Z,44.30
2017-11-12T03:27:55.164Z,46.95
2017-11-12T03:30:22.832Z,42.25
2017-11-12T03:32:49.722Z,41.45
2017-11-12T03:35:16.577Z,39.10
2017-11-12T03:37:43.415Z,39.63
2017-11-12T03:40:11.058Z,39.67
2017-11-12T03:42:37.898Z,40.38
2017-11-12T03:45:04.817Z,38.50
2017-11-12T03:47:31.666Z,39.90
2017-11-12T03:49:58.568Z,35.33
2017-11-12T03:52:25.501Z,38.08
2017-11-12T03:54:52.347Z,37.95
2017-11-12T03:57:19.300Z,37.72
2017-11-12T03:59:46.196Z,40.53
2017-11-12T04:02:13.079Z,38.47
2017-11-12T04:04:39.926Z,36.00
2017-11-12T04:07:06.820Z,37.75
2017-11-12T04:09:34.460Z,37.00
2017-11-12T04:12:01.335Z,38.00
2017-11-12T04:14:28.194Z,37.28
2017-11-12T04:16:55.087Z,38.55
2017-11-12T04:19:21.994Z,41.22
2017-11-12T04:21:48.928Z,39.67
2017-11-12T04:24:15.805Z,39.90
2017-11-12T04:26:42.710Z,39.80
2017-11-12T04:29:09.581Z,37.45
2017-11-12T04:31:36.396Z,40.40
2017-11-12T04:34:03.257Z,40.33
2017-11-12T04:36:30.196Z,38.80
2017-11-12T04:38:57.047Z,38.03
2017-11-12T04:41:23.907Z,39.85
2017-11-12T04:43:50.811Z,33.78
2017-11-12T04:46:17.657Z,37.95
2017-11-12T04:48:44.543Z,39.20
2017-11-12T04:51:11.472Z,40.35
2017-11-12T04:53:38.352Z,42.45
2017-11-12T04:56:05.995Z,36.70
2017-11-12T04:58:32.966Z,40.12
2017-11-12T05:01:00.608Z,38.35
2017-11-12T05:03:27.513Z,38.63
2017-11-12T05:05:54.431Z,38.58
2017-11-12T05:08:22.059Z,37.92
2017-11-12T05:10:48.947Z,39.05
2017-11-12T05:13:15.826Z,39.40
2017-11-12T05:15:42.693Z,38.65
2017-11-12T05:18:09.552Z,42.03
2017-11-12T05:20:37.165Z,39.10
2017-11-12T05:23:04.037Z,44.38
2017-11-12T05:25:30.889Z,40.75
2017-11-12T05:27:57.790Z,39.70
2017-11-12T05:30:24.660Z,36.47
2017-11-12T05:32:51.529Z,38.83
2017-11-12T05:35:18.401Z,39.42
2017-11-12T05:37:45.238Z,40.53
2017-11-12T05:40:12.125Z,42.22
2017-11-12T05:42:38.996Z,44.33
2017-11-12T05:45:05.859Z,42.72
2017-11-12T05:47:32.718Z,42.00
2017-11-12T05:49:59.675Z,42.85
2017-11-12T05:52:26.502Z,43.22
2017-11-12T05:54:53.384Z,42.15
2017-11-12T05:57:20.274Z,44.75
2017-11-12T05:59:47.131Z,43.75
2017-11-12T06:02:13.974Z,46.50
2017-11-12T06:04:40.848Z,48.00
2017-11-12T06:07:07.754Z,50.05
2017-11-12T06:09:34.667Z,50.95
2017-11-12T06:12:01.568Z,45.88
2017-11-12T06:14:28.473Z,46.85
2017-11-12T06:16:55.341Z,45.92
2017-11-12T06:19:22.290Z,45.30
2017-11-12T06:21:49.187Z,48.87
2017-11-12T06:24:16.091Z,53.40
2017-11-12T06:26:43.016Z,50.55
2017-11-12T06:29:09.910Z,47.03
2017-11-12T06:31:36.786Z,51.97
2017-11-12T06:34:03.649Z,51.65
2017-11-12T06:36:30.544Z,47.05
2017-11-12T06:38:57.703Z,47.60
2017-11-12T06:41:24.560Z,52.03
2017-11-12T06:43:51.530Z,46.95
2017-11-12T06:46:18.374Z,49.35
2017-11-12T06:48:45.252Z,48.58
2017-11-12T06:51:12.111Z,48.30
2017-11-12T06:53:38.946Z,46.58
2017-11-12T06:56:06.710Z,47.78
2017-11-12T06:58:33.572Z,46.40
2017-11-12T07:01:00.435Z,47.30
2017-11-12T07:03:28.048Z,49.92
2017-11-12T07:05:54.898Z,47.75
2017-11-12T07:08:21.800Z,47.90
2017-11-12T07:10:48.661Z,43.50
2017-11-12T07:13:15.531Z,42.58
2017-11-12T07:15:42.477Z,40.03
2017-11-12T07:18:09.338Z,39.20
2017-11-12T07:20:36.227Z,40.08
2017-11-12T07:23:03.121Z,38.90
2017-11-12T07:25:29.978Z,40.60
2017-11-12T07:27:57.586Z,41.80
2017-11-12T07:30:24.443Z,38.30
2017-11-12T07:32:51.334Z,43.45
2017-11-12T07:35:18.185Z,38.33
2017-11-12T07:37:45.087Z,43.13
2017-11-12T07:40:11.982Z,43.13
2017-11-12T07:42:38.874Z,45.30
2017-11-12T07:45:06.007Z,43.08
2017-11-12T07:47:32.853Z,44.58
2017-11-12T07:50:00.809Z,45.22
2017-11-12T07:52:27.747Z,47.42
2017-11-12T07:54:54.674Z,39.92
2017-11-12T07:57:21.529Z,46.13
2017-11-12T07:59:48.441Z,44.35
2017-11-12T08:02:15.394Z,44.50
2017-11-12T08:04:42.980Z,43.60
2017-11-12T08:07:09.897Z,44.53
2017-11-12T08:09:36.728Z,45.78
2017-11-12T08:12:04.405Z,45.08
2017-11-12T08:14:31.251Z,44.70
2017-11-12T08:16:58.097Z,43.28
2017-11-12T08:19:25.020Z,43.47
2017-11-12T08:21:51.871Z,46.05
2017-11-12T08:24:19.650Z,42.45
2017-11-12T08:26:46.511Z,42.75
2017-11-12T08:29:13.784Z,41.53
2017-11-12T08:31:40.631Z,45.65
2017-11-12T08:34:07.568Z,42.28
2017-11-12T08:36:34.472Z,41.72
2017-11-12T08:39:01.377Z,43.35
2017-11-12T08:41:28.224Z,44.33
2017-11-12T08:43:55.088Z,44.53
2017-11-12T08:46:22.074Z,44.50
2017-11-12T08:48:48.971Z,45.70
2017-11-12T08:51:15.909Z,54.10
2017-11-12T08:53:42.877Z,57.38
2017-11-12T08:56:09.836Z,52.75
2017-11-12T08:58:36.712Z,41.05
2017-11-12T09:01:04.038Z,39.33
2017-11-12T09:03:30.945Z,48.55
2017-11-12T09:05:57.775Z,39.03
2017-11-12T09:08:24.661Z,40.63
2017-11-12T09:10:51.580Z,60.60
2017-11-12T09:13:18.507Z,31.67
2017-11-12T09:15:45.374Z,43.38
2017-11-12T09:18:12.222Z,35.65
2017-11-12T09:20:39.175Z,49.25
2017-11-12T09:23:06.099Z,8.27
2017-11-12T09:25:32.926Z,11.43
2017-11-12T09:27:59.801Z,6.85
2017-11-12T09:30:27.413Z,8.63
2017-11-12T09:32:54.262Z,8.15
2017-11-12T09:35:22.308Z,11.70
2017-11-12T09:37:49.230Z,6.90
2017-11-12T09:40:16.796Z,6.75
2017-11-12T09:42:43.699Z,9.52
2017-11-12T09:45:11.449Z,8.88
2017-11-12T09:47:38.412Z,8.93
2017-11-12T09:50:05.515Z,9.13
2017-11-12T09:52:32.361Z,8.90
2017-11-12T09:54:59.329Z,8.80
2017-11-12T09:57:26.918Z,9.38
2017-11-12T09:59:53.767Z,8.50
2017-11-12T10:02:20.599Z,8.98
2017-11-12T10:04:47.458Z,9.40
2017-11-12T10:07:14.324Z,13.57
2017-11-12T10:09:41.404Z,15.95
2017-11-12T10:12:08.249Z,21.83
2017-11-12T10:14:35.084Z,16.60
2017-11-12T10:17:01.976Z,29.92
2017-11-12T10:19:28.811Z,24.98
2017-11-12T10:21:55.636Z,29.15
2017-11-12T10:24:24.434Z,19.52
2017-11-12T10:26:51.270Z,13.60
2017-11-12T10:29:18.120Z,11.80
2017-11-12T10:31:44.973Z,11.43
2017-11-12T10:34:11.793Z,13.10
2017-11-12T10:36:39.377Z,12.37
2017-11-12T10:39:06.976Z,15.52
2017-11-12T10:41:34.020Z,13.62
2017-11-12T10:44:00.892Z,15.60
2017-11-12T10:46:27.716Z,10.15
2017-11-12T10:48:54.588Z,11.25
2017-11-12T10:51:21.457Z,9.05
2017-11-12T10:53:49.071Z,22.52
2017-11-12T10:56:15.935Z,17.15
2017-11-12T10:58:43.282Z,41.47
2017-11-12T11:01:11.377Z,12.10
2017-11-12T11:03:39.213Z,48.97
2017-11-12T11:06:06.073Z,14.30
2017-11-12T11:08:32.925Z,14.20
2017-11-12T11:10:59.780Z,14.90
2017-11-12T11:13:26.604Z,12.88
2017-11-12T11:15:53.425Z,12.23
2017-11-12T11:18:20.245Z,19.85
2017-11-12T11:20:47.823Z,15.07
2017-11-12T11:23:14.648Z,19.73
2017-11-12T11:25:42.239Z,16.55
2017-11-12T11:28:09.798Z,13.45
2017-11-12T11:30:36.639Z,24.10
2017-11-12T11:33:03.533Z,15.90
2017-11-12T11:35:30.860Z,14.02
2017-11-12T11:37:57.805Z,12.13
2017-11-12T11:40:24.674Z,12.43
2017-11-12T11:42:51.542Z,14.00
2017-11-12T11:45:18.375Z,19.25
2017-11-12T11:47:45.238Z,54.63
2017-11-12T11:50:12.100Z,16.90
2017-11-12T11:52:38.947Z,13.30
2017-11-12T11:55:06.600Z,13.90
2017-11-12T11:57:33.526Z,19.98
2017-11-12T12:00:00.400Z,16.00
2017-11-12T12:02:27.294Z,78.10
2017-11-12T12:04:54.881Z,14.00
2017-11-12T12:07:22.487Z,27.08
2017-11-12T12:09:49.328Z,50.58
2017-11-12T12:12:17.045Z,40.50
2017-11-12T12:14:43.881Z,21.70
2017-11-12T12:17:10.719Z,35.88
2017-11-12T12:19:38.300Z,19.90
2017-11-12T12:22:05.906Z,18.27
2017-11-12T12:24:32.740Z,19.20
2017-11-12T12:27:00.363Z,24.55
2017-11-12T12:29:27.197Z,24.27
2017-11-12T12:31:54.104Z,21.50
2017-11-12T12:34:20.975Z,22.00
2017-11-12T12:36:47.882Z,22.50
2017-11-12T12:39:14.739Z,24.55
2017-11-12T12:41:41.620Z,24.27
2017-11-12T12:44:13.141Z,23.52
2017-11-12T12:46:40.540Z,23.25
2017-11-12T12:52:07.389Z,24.58
2017-11-12T12:54:34.269Z,21.30
2017-11-12T12:57:01.203Z,21.67
2017-11-12T12:59:31.115Z,19.05
2017-11-12T13:01:58.528Z,21.77
2017-11-12T13:04:26.204Z,19.77
2017-11-12T13:06:53.077Z,18.80
2017-11-12T13:09:19.986Z,20.40
2017-11-12T13:11:47.232Z,18.42
2017-11-12T13:14:14.204Z,18.37
2017-11-12T13:16:41.109Z,18.33
2017-11-12T13:19:08.796Z,16.15
2017-11-12T13:21:35.795Z,18.65
2017-11-12T13:24:02.763Z,19.30
2017-11-12T13:26:29.713Z,16.27
2017-11-12T13:28:57.412Z,13.48
2017-11-12T13:31:24.263Z,13.48
2017-11-12T13:33:51.197Z,13.77
2017-11-12T13:36:18.101Z,13.13
2017-11-12T13:38:45.021Z,13.32
2017-11-12T13:41:11.940Z,12.75
2017-11-12T13:43:40.503Z,13.20
2017-11-12T13:46:10.308Z,12.15
2017-11-12T13:48:37.261Z,12.80
2017-11-12T13:51:04.910Z,12.57
2017-11-12T13:53:31.892Z,14.43
2017-11-12T13:55:58.768Z,13.45
2017-11-12T13:58:25.653Z,12.82
2017-11-12T14:00:53.294Z,13.23
2017-11-12T14:03:20.216Z,13.35
2017-11-12T14:05:47.090Z,13.57
2017-11-12T14:08:13.998Z,14.45
2017-11-12T14:10:40.875Z,13.18
2017-11-12T14:13:07.757Z,14.52
2017-11-12T14:15:34.675Z,13.05
2017-11-12T14:18:04.222Z,13.50
2017-11-12T14:20:31.970Z,13.13
2017-11-12T14:22:59.541Z,13.60
2017-11-12T14:25:26.729Z,14.30
2017-11-12T14:27:54.343Z,13.88
2017-11-12T14:30:22.004Z,14.27
2017-11-12T14:32:49.191Z,40.00
2017-11-12T14:35:16.957Z,17.20
2017-11-12T14:37:45.300Z,16.65
2017-11-12T14:40:13.224Z,40.97
2017-11-12T14:42:40.136Z,16.42
2017-11-12T14:45:07.068Z,19.05
2017-11-12T14:47:33.923Z,22.37
2017-11-12T14:50:00.781Z,20.60
2017-11-12T14:52:27.637Z,26.70
2017-11-12T14:54:54.498Z,13.75
2017-11-12T14:57:22.199Z,25.83
2017-11-12T14:59:49.785Z,14.77
2017-11-12T15:02:17.738Z,28.33
2017-11-12T15:04:45.339Z,15.15
2017-11-12T15:07:12.343Z,12.02
2017-11-12T15:09:40.320Z,12.13
2017-11-12T15:12:07.860Z,15.73
2017-11-12T15:14:34.760Z,13.45
2017-11-12T15:17:01.992Z,12.65
2017-11-12T15:19:28.864Z,18.83
2017-11-12T15:21:55.713Z,12.43
2017-11-12T15:24:22.603Z,11.70
2017-11-12T15:26:50.274Z,12.73
2017-11-12T15:29:18.049Z,18.45
2017-11-12T15:31:45.678Z,42.40
2017-11-12T15:34:13.282Z,13.15
2017-11-12T15:36:40.149Z,14.05
2017-11-12T15:39:07.005Z,11.55
2017-11-12T15:41:33.931Z,10.70
2017-11-12T15:44:00.774Z,10.63
2017-11-12T15:46:28.402Z,9.88
2017-11-12T15:48:55.261Z,9.15
2017-11-12T15:51:22.095Z,10.88
2017-11-12T15:53:48.958Z,11.90
2017-11-12T15:56:15.865Z,9.90
2017-11-12T15:58:42.725Z,10.82
2017-11-12T16:01:09.600Z,8.20
2017-11-12T16:03:36.517Z,9.45
2017-11-12T16:06:03.423Z,7.28
2017-11-12T16:08:30.276Z,6.50
2017-11-12T16:10:57.092Z,6.95
2017-11-12T16:13:24.792Z,7.95
2017-11-12T16:15:51.748Z,7.30
2017-11-12T16:18:18.942Z,5.50
2017-11-12T16:20:46.017Z,6.30
2017-11-12T16:23:13.137Z,5.87
2017-11-12T16:25:40.025Z,5.90
2017-11-12T16:28:07.003Z,5.50
2017-11-12T16:30:33.939Z,5.57
2017-11-12T16:33:00.823Z,5.50
2017-11-12T16:35:27.702Z,6.70
2017-11-12T16:37:54.588Z,6.75
2017-11-12T16:40:21.441Z,12.18
2017-11-12T16:42:49.104Z,7.95
2017-11-12T16:45:16.033Z,6.20
2017-11-12T16:47:42.863Z,8.00
2017-11-12T16:50:10.072Z,8.05
2017-11-12T16:52:36.915Z,7.85
2017-11-12T16:55:03.832Z,8.65
2017-11-12T16:57:30.681Z,8.18
2017-11-12T16:59:57.556Z,8.80
2017-11-12T17:02:24.530Z,7.57
2017-11-12T17:04:52.128Z,8.13
2017-11-12T17:07:18.993Z,8.80
2017-11-12T17:09:46.496Z,9.00
2017-11-12T17:12:13.861Z,9.00
2017-11-12T17:14:40.797Z,8.60
2017-11-12T17:17:07.677Z,8.73
2017-11-12T17:19:34.663Z,29.77
2017-11-12T17:22:01.681Z,12.77
2017-11-12T17:24:29.259Z,9.40
2017-11-12T17:26:56.824Z,10.05
2017-11-12T17:29:24.464Z,9.60
2017-11-12T17:31:51.349Z,10.55
2017-11-12T17:34:18.430Z,9.52
2017-11-12T17:36:46.218Z,10.73
2017-11-12T17:39:13.866Z,14.98
2017-11-12T17:41:40.702Z,11.73
2017-11-12T17:44:07.579Z,12.00
2017-11-12T17:46:34.437Z,13.95
2017-11-12T17:49:01.453Z,13.18
2017-11-12T17:51:28.373Z,17.67
2017-11-12T17:53:55.349Z,16.33
2017-11-12T17:56:22.301Z,14.70
2017-11-12T17:58:49.241Z,14.13
2017-11-12T18:01:16.575Z,16.30
2017-11-12T18:03:43.537Z,16.85
2017-11-12T18:06:11.492Z,19.42
2017-11-12T18:08:39.725Z,30.52
2017-11-12T18:11:07.337Z,34.47
2017-11-12T18:13:35.869Z,15.65
2017-11-12T18:16:03.017Z,17.00
2017-11-12T18:18:29.898Z,18.90
2017-11-12T18:20:57.184Z,17.05
2017-11-12T18:23:25.445Z,17.98
2017-11-12T18:25:53.094Z,17.00
2017-11-12T18:28:21.237Z,19.17
2017-11-12T18:30:48.718Z,14.48
2017-11-12T18:33:16.392Z,16.48
2017-11-12T18:35:44.899Z,16.58
2017-11-12T18:38:13.724Z,15.82
2017-11-12T18:40:42.461Z,16.55
2017-11-12T18:43:12.100Z,20.90
2017-11-12T18:45:40.921Z,18.77
2017-11-12T18:48:09.880Z,15.07
2017-11-12T18:50:38.877Z,16.33
2017-11-12T18:53:07.599Z,18.90
2017-11-12T18:55:38.277Z,18.60
2017-11-12T18:58:09.862Z,18.35
2017-11-12T19:00:54.380Z,18.90
2017-11-12T19:03:25.841Z,18.83
2017-11-12T19:06:01.165Z,19.50
2017-11-12T19:08:33.301Z,19.42
2017-11-12T19:11:03.091Z,18.92
2017-11-12T19:13:33.314Z,17.58
2017-11-12T19:16:01.637Z,17.00
2017-11-12T19:18:30.584Z,19.17
2017-11-12T19:21:00.687Z,20.62
2017-11-12T19:23:31.746Z,16.30
2017-11-12T19:26:02.638Z,15.75
2017-11-12T19:28:31.737Z,16.70
2017-11-12T19:31:00.966Z,17.12
2017-11-12T19:33:29.983Z,15.23
2017-11-12T19:35:59.162Z,16.25
2017-11-12T19:38:28.791Z,17.45
2017-11-12T19:40:58.417Z,16.33
2017-11-12T19:43:27.934Z,15.35
2017-11-12T19:45:56.868Z,16.58
2017-11-12T19:48:25.836Z,17.58
2017-11-12T19:50:54.774Z,16.67
2017-11-12T19:53:23.814Z,16.95
2017-11-12T19:55:52.634Z,15.25
2017-11-12T19:58:21.584Z,17.20
2017-11-12T20:00:51.354Z,15.43
2017-11-12T20:03:21.640Z,16.35
2017-11-12T20:05:50.594Z,16.35
2017-11-12T20:08:19.435Z,15.55
2017-11-12T20:10:48.318Z,14.82
2017-11-12T20:13:16.886Z,15.45
2017-11-12T20:15:46.592Z,14.35
2017-11-12T20:18:15.323Z,14.87
2017-11-12T20:20:43.121Z,13.93
2017-11-12T20:23:11.016Z,14.43
2017-11-12T20:25:38.683Z,13.45
2017-11-12T20:28:06.192Z,15.65
2017-11-12T20:30:33.616Z,16.42
2017-11-12T20:33:01.641Z,13.73
2017-11-12T20:35:28.579Z,13.20
2017-11-12T20:37:56.032Z,14.68
2017-11-12T20:40:23.114Z,14.43
2017-11-12T20:42:51.423Z,11.20
2017-11-12T20:45:18.415Z,11.70
2017-11-12T20:47:45.917Z,13.32
2017-11-12T20:50:12.936Z,14.20
2017-11-12T20:52:41.765Z,13.27
2017-11-12T20:55:09.470Z,13.93
2017-11-12T20:57:37.132Z,13.95
2017-11-12T21:00:04.142Z,15.23
2017-11-12T21:02:31.085Z,15.57
2017-11-12T21:05:02.595Z,15.57
2017-11-12T21:07:29.557Z,16.67
2017-11-12T21:09:57.536Z,16.15
2017-11-12T21:12:24.510Z,14.48
2017-11-12T21:14:51.506Z,16.80
2017-11-12T21:17:18.460Z,15.52
2017-11-12T21:19:46.389Z,16.77
2017-11-12T21:22:19.355Z,16.90
2017-11-12T21:24:47.999Z,16.70
2017-11-12T21:27:17.912Z,16.00
2017-11-12T21:29:58.286Z,16.70
2017-11-12T21:32:28.697Z,16.95
2017-11-12T21:35:00.530Z,17.70
2017-11-12T21:37:29.363Z,19.02
2017-11-12T21:39:56.377Z,19.27
2017-11-12T21:42:23.258Z,20.73
2017-11-12T21:44:50.242Z,19.27
2017-11-12T21:47:17.196Z,19.55
2017-11-12T21:49:44.089Z,19.45
2017-11-12T21:52:10.982Z,20.62
2017-11-12T21:54:38.589Z,22.00
2017-11-12T21:57:05.508Z,19.25
2017-11-12T21:59:32.447Z,20.10
2017-11-12T22:01:59.292Z,20.17
2017-11-12T22:04:26.228Z,21.02
2017-11-12T22:06:53.860Z,20.77
2017-11-12T22:09:20.737Z,21.37
2017-11-12T22:11:47.618Z,20.48
2017-11-12T22:14:15.211Z,20.20
2017-11-12T22:16:42.827Z,22.30
2017-11-12T22:19:09.723Z,20.75
2017-11-12T22:21:36.611Z,20.35
2017-11-12T22:24:04.189Z,20.27
2017-11-12T22:26:31.753Z,21.12
2017-11-12T22:28:59.335Z,20.23
2017-11-12T22:31:26.971Z,20.00
2017-11-12T22:33:53.830Z,17.35
2017-11-12T22:36:20.700Z,19.62
2017-11-12T22:38:47.568Z,21.40
2017-11-12T22:41:14.416Z,19.70
2017-11-12T22:43:41.294Z,20.98
2017-11-12T22:46:08.135Z,21.77
2017-11-12T22:48:35.033Z,20.90
2017-11-12T22:51:01.881Z,19.50
2017-11-12T22:53:28.767Z,19.95
2017-11-12T22:55:56.376Z,18.10
2017-11-12T22:58:23.257Z,17.15
2017-11-12T23:00:56.166Z,18.48
2017-11-12T23:03:23.150Z,16.30
2017-11-12T23:05:49.998Z,18.27
2017-11-12T23:08:16.850Z,18.52
2017-11-12T23:10:43.673Z,17.10
2017-11-12T23:13:10.514Z,15.82
2017-11-12T23:15:38.075Z,16.00
2017-11-12T23:18:06.592Z,15.13
2017-11-12T23:20:33.464Z,15.05
2017-11-12T23:23:01.152Z,13.20
2017-11-12T23:25:28.007Z,15.73
2017-11-12T23:27:55.635Z,14.20
2017-11-12T23:30:22.467Z,14.57
2017-11-12T23:32:49.572Z,14.13
2017-11-12T23:35:16.409Z,15.25
2017-11-12T23:37:43.300Z,15.45
2017-11-12T23:40:10.153Z,16.05
2017-11-12T23:42:38.383Z,15.88
2017-11-12T23:45:05.315Z,14.60
2017-11-12T23:47:32.209Z,13.20
2017-11-12T23:49:59.820Z,14.35
2017-11-12T23:52:26.847Z,14.87
2017-11-12T23:54:53.677Z,13.32
2017-11-12T23:57:20.500Z,13.15
2017-11-12T23:59:47.571Z,12.43
